sensor_id;sensor_type;location;lat;lon;timestamp;temperature;humidity
28189;DHT22;15471;51.166;4.470;2022-07-09T00:00:36;18.20;99.90
28189;DHT22;15471;51.166;4.470;2022-07-09T00:03:02;18.20;99.90
28189;DHT22;15471;51.166;4.470;2022-07-09T00:05:27;18.20;99.90
28189;DHT22;15471;51.166;4.470;2022-07-09T00:07:53;18.20;99.90
28189;DHT22;15471;51.166;4.470;2022-07-09T00:10:19;18.20;99.90
28189;DHT22;15471;51.166;4.470;2022-07-09T00:12:45;18.20;99.90
28189;DHT22;15471;51.166;4.470;2022-07-09T00:15:11;18.20;99.90
28189;DHT22;15471;51.166;4.470;2022-07-09T00:17:36;18.20;99.90
28189;DHT22;15471;51.166;4.470;2022-07-09T00:20:03;18.20;99.90
28189;DHT22;15471;51.166;4.470;2022-07-09T00:22:31;18.20;99.90
28189;DHT22;15471;51.166;4.470;2022-07-09T00:24:58;18.10;99.90
28189;DHT22;15471;51.166;4.470;2022-07-09T00:27:24;18.10;99.90
28189;DHT22;15471;51.166;4.470;2022-07-09T00:29:49;18.10;99.90
28189;DHT22;15471;51.166;4.470;2022-07-09T00:32:15;18.10;99.90
28189;DHT22;15471;51.166;4.470;2022-07-09T00:34:41;18.10;99.90
28189;DHT22;15471;51.166;4.470;2022-07-09T00:37:07;18.00;99.90
28189;DHT22;15471;51.166;4.470;2022-07-09T00:39:33;18.10;99.90
28189;DHT22;15471;51.166;4.470;2022-07-09T00:44:28;18.00;99.90
28189;DHT22;15471;51.166;4.470;2022-07-09T00:46:54;17.90;99.90
28189;DHT22;15471;51.166;4.470;2022-07-09T00:49:20;17.90;99.90
28189;DHT22;15471;51.166;4.470;2022-07-09T00:51:46;17.80;99.90
28189;DHT22;15471;51.166;4.470;2022-07-09T00:54:13;17.70;99.90
28189;DHT22;15471;51.166;4.470;2022-07-09T00:56:39;17.70;99.90
28189;DHT22;15471;51.166;4.470;2022-07-09T00:59:05;17.70;99.90
28189;DHT22;15471;51.166;4.470;2022-07-09T01:01:36;17.70;99.90
28189;DHT22;15471;51.166;4.470;2022-07-09T01:04:02;17.70;99.90
28189;DHT22;15471;51.166;4.470;2022-07-09T01:06:28;17.70;99.90
28189;DHT22;15471;51.166;4.470;2022-07-09T01:08:54;17.80;99.90
28189;DHT22;15471;51.166;4.470;2022-07-09T01:11:19;17.80;99.90
28189;DHT22;15471;51.166;4.470;2022-07-09T01:13:46;17.80;99.90
28189;DHT22;15471;51.166;4.470;2022-07-09T01:16:15;17.70;99.90
28189;DHT22;15471;51.166;4.470;2022-07-09T01:18:46;17.80;99.90
28189;DHT22;15471;51.166;4.470;2022-07-09T01:21:13;17.70;99.90
28189;DHT22;15471;51.166;4.470;2022-07-09T01:23:39;17.70;99.90
28189;DHT22;15471;51.166;4.470;2022-07-09T01:26:05;17.60;99.90
28189;DHT22;15471;51.166;4.470;2022-07-09T01:28:31;17.60;99.90
28189;DHT22;15471;51.166;4.470;2022-07-09T01:30:57;17.60;99.90
28189;DHT22;15471;51.166;4.470;2022-07-09T01:33:22;17.50;99.90
28189;DHT22;15471;51.166;4.470;2022-07-09T01:35:48;17.50;99.90
28189;DHT22;15471;51.166;4.470;2022-07-09T01:38:14;17.50;99.90
28189;DHT22;15471;51.166;4.470;2022-07-09T01:40:39;17.40;99.90
28189;DHT22;15471;51.166;4.470;2022-07-09T01:43:05;17.40;99.90
28189;DHT22;15471;51.166;4.470;2022-07-09T01:45:32;17.30;99.90
28189;DHT22;15471;51.166;4.470;2022-07-09T01:47:58;17.30;99.90
28189;DHT22;15471;51.166;4.470;2022-07-09T01:50:24;17.30;99.90
28189;DHT22;15471;51.166;4.470;2022-07-09T01:52:49;17.20;99.90
28189;DHT22;15471;51.166;4.470;2022-07-09T01:55:16;17.20;99.90
28189;DHT22;15471;51.166;4.470;2022-07-09T01:57:42;17.10;99.90
28189;DHT22;15471;51.166;4.470;2022-07-09T02:00:08;17.10;99.90
28189;DHT22;15471;51.166;4.470;2022-07-09T02:02:41;17.10;99.90
28189;DHT22;15471;51.166;4.470;2022-07-09T02:05:07;17.10;99.90
28189;DHT22;15471;51.166;4.470;2022-07-09T02:07:33;17.10;99.90
28189;DHT22;15471;51.166;4.470;2022-07-09T02:09:58;17.10;99.90
28189;DHT22;15471;51.166;4.470;2022-07-09T02:12:25;17.10;99.90
28189;DHT22;15471;51.166;4.470;2022-07-09T02:14:51;17.00;99.90
28189;DHT22;15471;51.166;4.470;2022-07-09T02:17:17;16.90;99.90
28189;DHT22;15471;51.166;4.470;2022-07-09T02:19:42;16.80;99.90
28189;DHT22;15471;51.166;4.470;2022-07-09T02:22:08;16.80;99.90
28189;DHT22;15471;51.166;4.470;2022-07-09T02:24:34;16.80;99.90
28189;DHT22;15471;51.166;4.470;2022-07-09T02:27:00;16.80;99.90
28189;DHT22;15471;51.166;4.470;2022-07-09T02:29:26;16.80;99.90
28189;DHT22;15471;51.166;4.470;2022-07-09T02:31:51;16.80;99.90
28189;DHT22;15471;51.166;4.470;2022-07-09T02:34:19;16.70;99.90
28189;DHT22;15471;51.166;4.470;2022-07-09T02:36:45;16.70;99.90
28189;DHT22;15471;51.166;4.470;2022-07-09T02:39:11;16.70;99.90
28189;DHT22;15471;51.166;4.470;2022-07-09T02:41:36;16.70;99.90
28189;DHT22;15471;51.166;4.470;2022-07-09T02:44:02;16.60;99.90
28189;DHT22;15471;51.166;4.470;2022-07-09T02:46:28;16.60;99.90
28189;DHT22;15471;51.166;4.470;2022-07-09T02:48:54;16.60;99.90
28189;DHT22;15471;51.166;4.470;2022-07-09T02:51:19;16.60;99.90
28189;DHT22;15471;51.166;4.470;2022-07-09T02:53:45;16.50;99.90
28189;DHT22;15471;51.166;4.470;2022-07-09T02:56:11;16.60;99.90
28189;DHT22;15471;51.166;4.470;2022-07-09T02:58:37;16.50;99.90
28189;DHT22;15471;51.166;4.470;2022-07-09T03:01:03;16.60;99.90
28189;DHT22;15471;51.166;4.470;2022-07-09T03:03:31;16.60;99.90
28189;DHT22;15471;51.166;4.470;2022-07-09T03:05:57;16.70;99.90
28189;DHT22;15471;51.166;4.470;2022-07-09T03:08:23;16.80;99.90
28189;DHT22;15471;51.166;4.470;2022-07-09T03:10:49;16.90;99.90
28189;DHT22;15471;51.166;4.470;2022-07-09T03:13:15;17.00;99.90
28189;DHT22;15471;51.166;4.470;2022-07-09T03:15:41;17.10;99.90
28189;DHT22;15471;51.166;4.470;2022-07-09T03:18:07;17.20;99.90
28189;DHT22;15471;51.166;4.470;2022-07-09T03:20:35;17.20;99.90
28189;DHT22;15471;51.166;4.470;2022-07-09T03:23:01;17.30;99.90
28189;DHT22;15471;51.166;4.470;2022-07-09T03:25:27;17.30;99.90
28189;DHT22;15471;51.166;4.470;2022-07-09T03:27:56;17.30;99.90
28189;DHT22;15471;51.166;4.470;2022-07-09T03:30:22;17.30;99.90
28189;DHT22;15471;51.166;4.470;2022-07-09T03:32:49;17.30;99.90
28189;DHT22;15471;51.166;4.470;2022-07-09T03:35:15;17.30;99.90
28189;DHT22;15471;51.166;4.470;2022-07-09T03:37:41;17.30;99.90
28189;DHT22;15471;51.166;4.470;2022-07-09T03:40:07;17.40;99.90
28189;DHT22;15471;51.166;4.470;2022-07-09T03:42:33;17.40;99.90
28189;DHT22;15471;51.166;4.470;2022-07-09T03:44:59;17.50;99.90
28189;DHT22;15471;51.166;4.470;2022-07-09T03:47:24;17.40;99.90
28189;DHT22;15471;51.166;4.470;2022-07-09T03:49:50;17.40;99.90
28189;DHT22;15471;51.166;4.470;2022-07-09T03:52:16;17.40;99.90
28189;DHT22;15471;51.166;4.470;2022-07-09T03:54:41;17.40;99.90
28189;DHT22;15471;51.166;4.470;2022-07-09T03:57:07;17.30;99.90
28189;DHT22;15471;51.166;4.470;2022-07-09T03:59:33;17.30;99.90
28189;DHT22;15471;51.166;4.470;2022-07-09T04:01:59;17.30;99.90
28189;DHT22;15471;51.166;4.470;2022-07-09T04:04:25;17.20;99.90
28189;DHT22;15471;51.166;4.470;2022-07-09T04:06:50;17.30;99.90
28189;DHT22;15471;51.166;4.470;2022-07-09T04:09:16;17.20;99.90
28189;DHT22;15471;51.166;4.470;2022-07-09T04:11:42;17.30;99.90
28189;DHT22;15471;51.166;4.470;2022-07-09T04:14:07;17.30;99.90
28189;DHT22;15471;51.166;4.470;2022-07-09T04:16:33;17.30;99.90
28189;DHT22;15471;51.166;4.470;2022-07-09T04:18:59;17.30;99.90
28189;DHT22;15471;51.166;4.470;2022-07-09T04:21:25;17.30;99.90
28189;DHT22;15471;51.166;4.470;2022-07-09T04:23:51;17.30;99.90
28189;DHT22;15471;51.166;4.470;2022-07-09T04:26:17;17.40;99.90
28189;DHT22;15471;51.166;4.470;2022-07-09T04:28:44;17.40;99.90
28189;DHT22;15471;51.166;4.470;2022-07-09T04:31:10;17.30;99.90
28189;DHT22;15471;51.166;4.470;2022-07-09T04:33:36;17.20;99.90
28189;DHT22;15471;51.166;4.470;2022-07-09T04:36:02;17.10;99.90
28189;DHT22;15471;51.166;4.470;2022-07-09T04:38:28;17.00;99.90
28189;DHT22;15471;51.166;4.470;2022-07-09T04:40:54;17.10;99.90
28189;DHT22;15471;51.166;4.470;2022-07-09T04:43:21;17.20;99.90
28189;DHT22;15471;51.166;4.470;2022-07-09T04:45:46;17.30;99.90
28189;DHT22;15471;51.166;4.470;2022-07-09T04:48:12;17.40;99.90
28189;DHT22;15471;51.166;4.470;2022-07-09T04:50:38;17.40;99.90
28189;DHT22;15471;51.166;4.470;2022-07-09T04:53:04;17.40;99.90
28189;DHT22;15471;51.166;4.470;2022-07-09T04:55:30;17.50;99.90
28189;DHT22;15471;51.166;4.470;2022-07-09T04:57:56;17.60;99.90
28189;DHT22;15471;51.166;4.470;2022-07-09T05:00:22;17.70;99.90
28189;DHT22;15471;51.166;4.470;2022-07-09T05:02:48;17.80;99.90
28189;DHT22;15471;51.166;4.470;2022-07-09T05:05:13;17.90;99.90
28189;DHT22;15471;51.166;4.470;2022-07-09T05:07:40;17.90;99.90
28189;DHT22;15471;51.166;4.470;2022-07-09T05:10:09;17.80;99.90
28189;DHT22;15471;51.166;4.470;2022-07-09T05:12:35;17.70;99.90
28189;DHT22;15471;51.166;4.470;2022-07-09T05:15:02;17.70;99.90
28189;DHT22;15471;51.166;4.470;2022-07-09T05:17:28;17.70;99.90
28189;DHT22;15471;51.166;4.470;2022-07-09T05:19:53;17.80;99.90
28189;DHT22;15471;51.166;4.470;2022-07-09T05:22:20;17.90;99.90
28189;DHT22;15471;51.166;4.470;2022-07-09T05:24:45;17.80;99.90
28189;DHT22;15471;51.166;4.470;2022-07-09T05:27:11;18.00;99.90
28189;DHT22;15471;51.166;4.470;2022-07-09T05:29:37;18.00;99.90
28189;DHT22;15471;51.166;4.470;2022-07-09T05:32:03;18.20;99.90
28189;DHT22;15471;51.166;4.470;2022-07-09T05:34:29;18.30;99.90
28189;DHT22;15471;51.166;4.470;2022-07-09T05:36:55;18.60;99.90
28189;DHT22;15471;51.166;4.470;2022-07-09T05:39:21;18.80;99.90
28189;DHT22;15471;51.166;4.470;2022-07-09T05:41:47;18.80;99.90
28189;DHT22;15471;51.166;4.470;2022-07-09T05:44:14;18.80;99.90
28189;DHT22;15471;51.166;4.470;2022-07-09T05:46:40;18.80;99.90
28189;DHT22;15471;51.166;4.470;2022-07-09T05:49:06;18.60;99.90
28189;DHT22;15471;51.166;4.470;2022-07-09T05:51:32;18.60;99.90
28189;DHT22;15471;51.166;4.470;2022-07-09T05:53:58;18.70;99.90
28189;DHT22;15471;51.166;4.470;2022-07-09T05:56:24;18.60;99.90
28189;DHT22;15471;51.166;4.470;2022-07-09T05:58:50;18.70;99.90
28189;DHT22;15471;51.166;4.470;2022-07-09T06:01:16;18.70;99.90
28189;DHT22;15471;51.166;4.470;2022-07-09T06:03:41;18.60;99.90
28189;DHT22;15471;51.166;4.470;2022-07-09T06:06:09;18.60;99.90
28189;DHT22;15471;51.166;4.470;2022-07-09T06:08:35;18.70;99.90
28189;DHT22;15471;51.166;4.470;2022-07-09T06:11:01;18.80;99.90
28189;DHT22;15471;51.166;4.470;2022-07-09T06:13:27;19.00;99.90
28189;DHT22;15471;51.166;4.470;2022-07-09T06:15:53;19.20;99.90
28189;DHT22;15471;51.166;4.470;2022-07-09T06:18:19;19.30;99.90
28189;DHT22;15471;51.166;4.470;2022-07-09T06:20:45;19.50;99.90
28189;DHT22;15471;51.166;4.470;2022-07-09T06:23:11;19.50;99.90
28189;DHT22;15471;51.166;4.470;2022-07-09T06:25:38;19.50;99.90
28189;DHT22;15471;51.166;4.470;2022-07-09T06:28:04;19.60;99.90
28189;DHT22;15471;51.166;4.470;2022-07-09T06:30:31;19.60;99.90
28189;DHT22;15471;51.166;4.470;2022-07-09T06:32:59;19.70;99.90
28189;DHT22;15471;51.166;4.470;2022-07-09T06:35:25;19.90;99.90
28189;DHT22;15471;51.166;4.470;2022-07-09T06:37:51;19.90;99.90
28189;DHT22;15471;51.166;4.470;2022-07-09T06:40:17;20.00;99.90
28189;DHT22;15471;51.166;4.470;2022-07-09T06:42:42;20.00;99.90
28189;DHT22;15471;51.166;4.470;2022-07-09T06:45:17;20.20;99.90
28189;DHT22;15471;51.166;4.470;2022-07-09T06:47:43;20.20;99.90
28189;DHT22;15471;51.166;4.470;2022-07-09T06:50:08;20.10;99.90
28189;DHT22;15471;51.166;4.470;2022-07-09T06:52:34;20.00;99.90
28189;DHT22;15471;51.166;4.470;2022-07-09T06:55:00;20.10;99.90
28189;DHT22;15471;51.166;4.470;2022-07-09T06:57:26;20.30;99.90
28189;DHT22;15471;51.166;4.470;2022-07-09T06:59:51;20.30;99.90
28189;DHT22;15471;51.166;4.470;2022-07-09T07:02:17;20.10;99.90
28189;DHT22;15471;51.166;4.470;2022-07-09T07:04:43;19.90;99.90
28189;DHT22;15471;51.166;4.470;2022-07-09T07:07:09;19.80;99.90
28189;DHT22;15471;51.166;4.470;2022-07-09T07:09:35;19.80;99.90
28189;DHT22;15471;51.166;4.470;2022-07-09T07:12:01;19.60;99.90
28189;DHT22;15471;51.166;4.470;2022-07-09T07:14:27;19.70;99.90
28189;DHT22;15471;51.166;4.470;2022-07-09T07:16:53;19.80;99.90
28189;DHT22;15471;51.166;4.470;2022-07-09T07:19:19;19.80;99.90
28189;DHT22;15471;51.166;4.470;2022-07-09T07:21:48;19.80;99.90
28189;DHT22;15471;51.166;4.470;2022-07-09T07:24:14;19.90;99.90
28189;DHT22;15471;51.166;4.470;2022-07-09T07:26:40;20.00;99.90
28189;DHT22;15471;51.166;4.470;2022-07-09T07:29:06;20.10;99.90
28189;DHT22;15471;51.166;4.470;2022-07-09T07:31:32;20.20;99.90
28189;DHT22;15471;51.166;4.470;2022-07-09T07:33:58;20.30;99.90
28189;DHT22;15471;51.166;4.470;2022-07-09T07:36:26;20.50;99.90
28189;DHT22;15471;51.166;4.470;2022-07-09T07:38:52;20.70;99.90
28189;DHT22;15471;51.166;4.470;2022-07-09T07:41:18;20.60;99.90
28189;DHT22;15471;51.166;4.470;2022-07-09T07:43:46;20.40;99.90
28189;DHT22;15471;51.166;4.470;2022-07-09T07:46:12;20.40;99.90
28189;DHT22;15471;51.166;4.470;2022-07-09T07:48:38;20.40;99.90
28189;DHT22;15471;51.166;4.470;2022-07-09T07:51:07;20.40;99.90
28189;DHT22;15471;51.166;4.470;2022-07-09T07:53:34;20.40;99.90
28189;DHT22;15471;51.166;4.470;2022-07-09T07:56:01;20.50;99.90
28189;DHT22;15471;51.166;4.470;2022-07-09T07:58:27;20.40;99.90
28189;DHT22;15471;51.166;4.470;2022-07-09T08:00:53;20.50;99.90
28189;DHT22;15471;51.166;4.470;2022-07-09T08:03:19;20.60;99.90
28189;DHT22;15471;51.166;4.470;2022-07-09T08:05:45;20.70;99.90
28189;DHT22;15471;51.166;4.470;2022-07-09T08:08:11;20.80;99.90
28189;DHT22;15471;51.166;4.470;2022-07-09T08:10:36;20.70;99.90
28189;DHT22;15471;51.166;4.470;2022-07-09T08:13:02;20.70;99.90
28189;DHT22;15471;51.166;4.470;2022-07-09T08:15:28;20.70;99.90
28189;DHT22;15471;51.166;4.470;2022-07-09T08:17:54;20.70;99.90
28189;DHT22;15471;51.166;4.470;2022-07-09T08:20:20;20.70;99.90
28189;DHT22;15471;51.166;4.470;2022-07-09T08:22:46;20.70;99.90
28189;DHT22;15471;51.166;4.470;2022-07-09T08:25:11;20.80;99.90
28189;DHT22;15471;51.166;4.470;2022-07-09T08:27:39;20.90;99.90
28189;DHT22;15471;51.166;4.470;2022-07-09T08:30:05;21.10;99.90
28189;DHT22;15471;51.166;4.470;2022-07-09T08:32:31;21.20;99.90
28189;DHT22;15471;51.166;4.470;2022-07-09T08:34:57;21.20;99.90
28189;DHT22;15471;51.166;4.470;2022-07-09T08:37:23;21.30;99.90
28189;DHT22;15471;51.166;4.470;2022-07-09T08:39:49;21.40;99.90
28189;DHT22;15471;51.166;4.470;2022-07-09T08:42:15;21.90;99.90
28189;DHT22;15471;51.166;4.470;2022-07-09T08:44:46;22.80;99.90
28189;DHT22;15471;51.166;4.470;2022-07-09T08:47:12;22.90;99.90
28189;DHT22;15471;51.166;4.470;2022-07-09T08:49:39;22.50;99.90
28189;DHT22;15471;51.166;4.470;2022-07-09T08:52:06;22.30;99.90
28189;DHT22;15471;51.166;4.470;2022-07-09T08:54:32;22.30;99.90
28189;DHT22;15471;51.166;4.470;2022-07-09T08:57:01;23.20;99.90
28189;DHT22;15471;51.166;4.470;2022-07-09T08:59:26;23.20;99.90
28189;DHT22;15471;51.166;4.470;2022-07-09T09:01:52;23.00;99.90
28189;DHT22;15471;51.166;4.470;2022-07-09T09:04:18;22.70;99.90
28189;DHT22;15471;51.166;4.470;2022-07-09T09:06:44;22.80;99.90
28189;DHT22;15471;51.166;4.470;2022-07-09T09:09:17;22.60;99.90
28189;DHT22;15471;51.166;4.470;2022-07-09T09:11:47;22.60;99.90
28189;DHT22;15471;51.166;4.470;2022-07-09T09:14:20;22.50;99.90
28189;DHT22;15471;51.166;4.470;2022-07-09T09:16:46;22.30;99.90
28189;DHT22;15471;51.166;4.470;2022-07-09T09:19:12;22.40;99.90
28189;DHT22;15471;51.166;4.470;2022-07-09T09:21:38;22.50;99.90
28189;DHT22;15471;51.166;4.470;2022-07-09T09:24:04;22.60;99.90
28189;DHT22;15471;51.166;4.470;2022-07-09T09:26:30;22.60;99.90
28189;DHT22;15471;51.166;4.470;2022-07-09T09:29:00;22.50;99.90
28189;DHT22;15471;51.166;4.470;2022-07-09T09:31:34;22.30;99.90
28189;DHT22;15471;51.166;4.470;2022-07-09T09:34:13;22.40;99.90
28189;DHT22;15471;51.166;4.470;2022-07-09T09:36:51;22.30;99.90
28189;DHT22;15471;51.166;4.470;2022-07-09T09:41:59;22.50;99.90
28189;DHT22;15471;51.166;4.470;2022-07-09T09:44:27;22.50;99.90
28189;DHT22;15471;51.166;4.470;2022-07-09T09:46:55;22.40;99.90
28189;DHT22;15471;51.166;4.470;2022-07-09T09:49:21;22.10;99.90
28189;DHT22;15471;51.166;4.470;2022-07-09T09:52:14;22.10;99.90
28189;DHT22;15471;51.166;4.470;2022-07-09T09:54:51;22.20;99.90
28189;DHT22;15471;51.166;4.470;2022-07-09T09:57:17;22.10;99.90
28189;DHT22;15471;51.166;4.470;2022-07-09T09:59:46;22.20;99.90
28189;DHT22;15471;51.166;4.470;2022-07-09T10:02:12;22.40;99.90
28189;DHT22;15471;51.166;4.470;2022-07-09T10:04:41;22.30;99.90
28189;DHT22;15471;51.166;4.470;2022-07-09T10:07:08;22.10;99.90
28189;DHT22;15471;51.166;4.470;2022-07-09T10:09:35;22.00;99.90
28189;DHT22;15471;51.166;4.470;2022-07-09T10:12:00;21.90;99.90
28189;DHT22;15471;51.166;4.470;2022-07-09T10:16:52;22.00;99.90
28189;DHT22;15471;51.166;4.470;2022-07-09T10:19:30;22.20;99.90
28189;DHT22;15471;51.166;4.470;2022-07-09T10:21:59;22.20;99.90
28189;DHT22;15471;51.166;4.470;2022-07-09T10:24:33;22.20;99.90
28189;DHT22;15471;51.166;4.470;2022-07-09T10:27:06;22.30;99.90
28189;DHT22;15471;51.166;4.470;2022-07-09T10:29:34;22.00;99.90
28189;DHT22;15471;51.166;4.470;2022-07-09T10:32:00;22.00;99.90
28189;DHT22;15471;51.166;4.470;2022-07-09T10:34:53;22.10;99.90
28189;DHT22;15471;51.166;4.470;2022-07-09T10:37:42;22.00;99.90
28189;DHT22;15471;51.166;4.470;2022-07-09T10:40:12;22.00;99.90
28189;DHT22;15471;51.166;4.470;2022-07-09T10:42:40;21.80;99.90
28189;DHT22;15471;51.166;4.470;2022-07-09T10:48:03;21.70;99.90
28189;DHT22;15471;51.166;4.470;2022-07-09T10:50:32;22.00;99.90
28189;DHT22;15471;51.166;4.470;2022-07-09T10:52:58;22.30;99.90
28189;DHT22;15471;51.166;4.470;2022-07-09T10:55:29;22.30;99.90
28189;DHT22;15471;51.166;4.470;2022-07-09T10:57:55;22.00;99.90
28189;DHT22;15471;51.166;4.470;2022-07-09T11:00:23;21.90;99.90
28189;DHT22;15471;51.166;4.470;2022-07-09T11:02:53;22.10;99.90
28189;DHT22;15471;51.166;4.470;2022-07-09T11:05:19;22.00;99.90
28189;DHT22;15471;51.166;4.470;2022-07-09T11:08:14;22.10;99.90
28189;DHT22;15471;51.166;4.470;2022-07-09T11:10:40;22.00;99.90
28189;DHT22;15471;51.166;4.470;2022-07-09T11:13:07;21.90;99.90
28189;DHT22;15471;51.166;4.470;2022-07-09T11:15:35;21.90;99.90
28189;DHT22;15471;51.166;4.470;2022-07-09T11:18:08;22.10;99.90
28189;DHT22;15471;51.166;4.470;2022-07-09T11:20:43;22.20;99.90
28189;DHT22;15471;51.166;4.470;2022-07-09T11:23:13;22.00;99.90
28189;DHT22;15471;51.166;4.470;2022-07-09T11:25:40;22.30;99.90
28189;DHT22;15471;51.166;4.470;2022-07-09T11:28:06;22.50;99.90
28189;DHT22;15471;51.166;4.470;2022-07-09T11:30:32;22.50;99.90
28189;DHT22;15471;51.166;4.470;2022-07-09T11:32:58;22.20;99.90
28189;DHT22;15471;51.166;4.470;2022-07-09T11:35:32;22.10;99.90
28189;DHT22;15471;51.166;4.470;2022-07-09T11:38:00;22.10;99.90
28189;DHT22;15471;51.166;4.470;2022-07-09T11:40:26;22.00;99.90
28189;DHT22;15471;51.166;4.470;2022-07-09T11:42:52;22.20;99.90
28189;DHT22;15471;51.166;4.470;2022-07-09T11:45:36;22.30;99.90
28189;DHT22;15471;51.166;4.470;2022-07-09T11:48:07;22.10;99.90
28189;DHT22;15471;51.166;4.470;2022-07-09T11:50:35;21.90;99.90
28189;DHT22;15471;51.166;4.470;2022-07-09T11:53:07;21.70;99.90
28189;DHT22;15471;51.166;4.470;2022-07-09T11:55:32;21.60;99.90
28189;DHT22;15471;51.166;4.470;2022-07-09T11:58:07;21.70;99.90
28189;DHT22;15471;51.166;4.470;2022-07-09T12:00:35;21.60;99.90
28189;DHT22;15471;51.166;4.470;2022-07-09T12:03:05;21.90;99.90
28189;DHT22;15471;51.166;4.470;2022-07-09T12:05:36;21.70;99.90
28189;DHT22;15471;51.166;4.470;2022-07-09T12:08:04;21.50;99.90
28189;DHT22;15471;51.166;4.470;2022-07-09T12:10:32;21.50;99.90
28189;DHT22;15471;51.166;4.470;2022-07-09T12:12:59;21.40;99.90
28189;DHT22;15471;51.166;4.470;2022-07-09T12:15:26;21.50;99.90
28189;DHT22;15471;51.166;4.470;2022-07-09T12:17:53;21.70;99.90
28189;DHT22;15471;51.166;4.470;2022-07-09T12:20:23;21.90;99.90
28189;DHT22;15471;51.166;4.470;2022-07-09T12:22:50;21.90;99.90
28189;DHT22;15471;51.166;4.470;2022-07-09T12:25:16;21.90;99.90
28189;DHT22;15471;51.166;4.470;2022-07-09T12:27:42;22.00;99.90
28189;DHT22;15471;51.166;4.470;2022-07-09T12:30:08;21.70;99.90
28189;DHT22;15471;51.166;4.470;2022-07-09T12:32:34;21.60;99.90
28189;DHT22;15471;51.166;4.470;2022-07-09T12:35:01;21.50;99.90
28189;DHT22;15471;51.166;4.470;2022-07-09T12:37:26;21.40;99.90
28189;DHT22;15471;51.166;4.470;2022-07-09T12:39:52;21.60;99.90
28189;DHT22;15471;51.166;4.470;2022-07-09T12:42:20;21.70;99.90
28189;DHT22;15471;51.166;4.470;2022-07-09T12:44:49;21.60;99.90
28189;DHT22;15471;51.166;4.470;2022-07-09T12:47:18;21.60;99.90
28189;DHT22;15471;51.166;4.470;2022-07-09T12:49:44;21.40;99.90
28189;DHT22;15471;51.166;4.470;2022-07-09T12:52:10;21.60;99.90
28189;DHT22;15471;51.166;4.470;2022-07-09T12:54:35;21.60;99.90
28189;DHT22;15471;51.166;4.470;2022-07-09T12:57:01;21.50;99.90
28189;DHT22;15471;51.166;4.470;2022-07-09T12:59:27;21.40;99.90
28189;DHT22;15471;51.166;4.470;2022-07-09T13:01:53;21.20;99.90
28189;DHT22;15471;51.166;4.470;2022-07-09T13:04:18;21.30;99.90
28189;DHT22;15471;51.166;4.470;2022-07-09T13:06:44;21.50;99.90
28189;DHT22;15471;51.166;4.470;2022-07-09T13:09:10;21.60;99.90
28189;DHT22;15471;51.166;4.470;2022-07-09T13:11:37;21.70;99.90
28189;DHT22;15471;51.166;4.470;2022-07-09T13:14:03;21.50;99.90
28189;DHT22;15471;51.166;4.470;2022-07-09T13:16:29;21.50;99.90
28189;DHT22;15471;51.166;4.470;2022-07-09T13:18:55;21.60;99.90
28189;DHT22;15471;51.166;4.470;2022-07-09T13:21:22;21.50;99.90
28189;DHT22;15471;51.166;4.470;2022-07-09T13:23:49;21.60;99.90
28189;DHT22;15471;51.166;4.470;2022-07-09T13:26:16;21.50;99.90
28189;DHT22;15471;51.166;4.470;2022-07-09T13:28:42;21.50;99.90
28189;DHT22;15471;51.166;4.470;2022-07-09T13:31:08;21.50;99.90
28189;DHT22;15471;51.166;4.470;2022-07-09T13:33:35;21.40;99.90
28189;DHT22;15471;51.166;4.470;2022-07-09T13:36:02;21.00;99.90
28189;DHT22;15471;51.166;4.470;2022-07-09T13:38:29;21.20;99.90
28189;DHT22;15471;51.166;4.470;2022-07-09T13:40:55;21.30;99.90
28189;DHT22;15471;51.166;4.470;2022-07-09T13:43:21;21.30;99.90
28189;DHT22;15471;51.166;4.470;2022-07-09T13:45:49;21.20;99.90
28189;DHT22;15471;51.166;4.470;2022-07-09T13:48:16;21.00;99.90
28189;DHT22;15471;51.166;4.470;2022-07-09T13:50:42;20.90;99.90
28189;DHT22;15471;51.166;4.470;2022-07-09T13:53:07;20.90;99.90
28189;DHT22;15471;51.166;4.470;2022-07-09T13:55:34;21.10;99.90
28189;DHT22;15471;51.166;4.470;2022-07-09T13:58:00;21.40;99.90
28189;DHT22;15471;51.166;4.470;2022-07-09T14:00:26;21.60;99.90
28189;DHT22;15471;51.166;4.470;2022-07-09T14:02:52;21.60;99.90
28189;DHT22;15471;51.166;4.470;2022-07-09T14:05:18;21.60;99.90
28189;DHT22;15471;51.166;4.470;2022-07-09T14:07:45;21.60;99.90
28189;DHT22;15471;51.166;4.470;2022-07-09T14:10:11;21.60;99.90
28189;DHT22;15471;51.166;4.470;2022-07-09T14:12:37;21.50;99.90
28189;DHT22;15471;51.166;4.470;2022-07-09T14:15:04;21.40;99.90
28189;DHT22;15471;51.166;4.470;2022-07-09T14:17:30;21.40;99.90
28189;DHT22;15471;51.166;4.470;2022-07-09T14:19:55;21.50;99.90
28189;DHT22;15471;51.166;4.470;2022-07-09T14:22:21;21.60;99.90
28189;DHT22;15471;51.166;4.470;2022-07-09T14:24:47;21.80;99.90
28189;DHT22;15471;51.166;4.470;2022-07-09T14:27:13;21.90;99.90
28189;DHT22;15471;51.166;4.470;2022-07-09T14:29:39;22.00;99.90
28189;DHT22;15471;51.166;4.470;2022-07-09T14:32:05;21.80;99.90
28189;DHT22;15471;51.166;4.470;2022-07-09T14:34:33;21.70;99.90
28189;DHT22;15471;51.166;4.470;2022-07-09T14:36:59;21.70;99.90
28189;DHT22;15471;51.166;4.470;2022-07-09T14:39:25;21.60;99.90
28189;DHT22;15471;51.166;4.470;2022-07-09T14:41:51;21.70;99.90
28189;DHT22;15471;51.166;4.470;2022-07-09T14:44:17;21.80;99.90
28189;DHT22;15471;51.166;4.470;2022-07-09T14:46:43;21.90;99.90
28189;DHT22;15471;51.166;4.470;2022-07-09T14:49:09;22.30;99.90
28189;DHT22;15471;51.166;4.470;2022-07-09T14:51:36;21.90;99.90
28189;DHT22;15471;51.166;4.470;2022-07-09T14:54:03;21.70;99.90
28189;DHT22;15471;51.166;4.470;2022-07-09T14:56:29;21.60;99.90
28189;DHT22;15471;51.166;4.470;2022-07-09T14:58:55;21.90;99.90
28189;DHT22;15471;51.166;4.470;2022-07-09T15:01:21;22.00;99.90
28189;DHT22;15471;51.166;4.470;2022-07-09T15:03:47;21.90;99.90
28189;DHT22;15471;51.166;4.470;2022-07-09T15:06:13;22.00;99.90
28189;DHT22;15471;51.166;4.470;2022-07-09T15:08:39;21.90;99.90
28189;DHT22;15471;51.166;4.470;2022-07-09T15:11:05;21.80;99.90
28189;DHT22;15471;51.166;4.470;2022-07-09T15:13:31;21.70;99.90
28189;DHT22;15471;51.166;4.470;2022-07-09T15:15:58;21.60;99.90
28189;DHT22;15471;51.166;4.470;2022-07-09T15:18:24;22.40;99.90
28189;DHT22;15471;51.166;4.470;2022-07-09T15:20:50;23.40;99.90
28189;DHT22;15471;51.166;4.470;2022-07-09T15:23:16;24.30;99.90
28189;DHT22;15471;51.166;4.470;2022-07-09T15:25:42;25.50;99.90
28189;DHT22;15471;51.166;4.470;2022-07-09T15:28:08;26.10;99.90
28189;DHT22;15471;51.166;4.470;2022-07-09T15:30:34;25.90;99.90
28189;DHT22;15471;51.166;4.470;2022-07-09T15:33:00;26.40;99.90
28189;DHT22;15471;51.166;4.470;2022-07-09T15:35:25;25.70;99.90
28189;DHT22;15471;51.166;4.470;2022-07-09T15:37:51;26.00;99.90